Time;durP1;ratioP1;P1;durP2;ratioP2;P2;SDS_P1;SDS_P2;PMS_P1;PMS_P2;Temp;Humidity;BMP_temperature;BMP_pressure;BME280_temperature;BME280_humidity;BME280_pressure;Samples;Min_cycle;Max_cycle;Signal;HPM_P1;HPM_P2
2024/03/04 00:00:39;;;;;;;18.30;12.13;;;10.30;99.90;;;;;;5050066;28;20420;-70
2024/03/04 00:03:06;;;;;;;22.13;13.70;;;10.20;99.90;;;;;;5050467;28;20484;-70
2024/03/04 00:05:34;;;;;;;21.70;12.90;;;10.30;99.90;;;;;;5051519;28;20429;-69
2024/03/04 00:07:59;;;;;;;22.13;13.33;;;10.30;99.90;;;;;;5051625;28;20928;-69
2024/03/04 00:10:25;;;;;;;25.50;14.10;;;10.30;99.90;;;;;;5051605;28;20448;-70
2024/03/04 00:12:51;;;;;;;25.87;13.83;;;10.20;99.90;;;;;;5049999;28;20193;-69
2024/03/04 00:15:16;;;;;;;31.20;13.67;;;10.20;99.90;;;;;;5051614;28;20194;-70
2024/03/04 00:17:42;;;;;;;24.00;13.63;;;10.20;99.90;;;;;;5051622;28;20609;-69
2024/03/04 00:20:09;;;;;;;26.67;14.60;;;10.30;99.90;;;;;;5051519;28;20209;-69
2024/03/04 00:22:35;;;;;;;22.50;12.97;;;10.30;99.90;;;;;;5049933;28;20199;-70
2024/03/04 00:25:01;;;;;;;21.77;13.63;;;10.20;99.90;;;;;;5051420;28;20493;-70
2024/03/04 00:27:27;;;;;;;19.37;11.90;;;10.20;99.90;;;;;;5051272;28;20952;-70
2024/03/04 00:29:52;;;;;;;29.40;15.47;;;10.20;99.90;;;;;;5051418;28;20435;-70
2024/03/04 00:32:18;;;;;;;25.63;14.00;;;10.10;99.90;;;;;;5051146;28;20178;-69
2024/03/04 00:34:43;;;;;;;23.23;13.20;;;10.10;99.90;;;;;;5050084;28;20162;-70
2024/03/04 00:37:10;;;;;;;26.73;13.70;;;10.10;99.90;;;;;;5050072;28;20588;-69
2024/03/04 00:39:39;;;;;;;27.23;11.77;;;10.10;99.90;;;;;;5051342;28;20533;-69
2024/03/04 00:42:05;;;;;;;21.00;12.53;;;10.10;99.90;;;;;;5051298;28;20416;-70
2024/03/04 00:44:30;;;;;;;23.43;12.93;;;10.10;99.90;;;;;;5054880;28;20424;-70
2024/03/04 00:46:56;;;;;;;25.83;12.83;;;10.10;99.90;;;;;;5054972;28;20658;-69
2024/03/04 00:49:22;;;;;;;25.87;14.63;;;10.10;99.90;;;;;;5054937;28;20155;-69
2024/03/04 00:51:47;;;;;;;22.53;13.20;;;10.10;99.90;;;;;;5054763;28;20483;-69
2024/03/04 00:54:13;;;;;;;27.83;13.73;;;10.00;99.90;;;;;;5054387;28;20189;-70
2024/03/04 00:56:38;;;;;;;21.57;12.80;;;10.10;99.90;;;;;;5054687;28;20167;-70
2024/03/04 00:59:04;;;;;;;22.53;13.60;;;10.00;99.90;;;;;;5054859;28;20673;-70
2024/03/04 01:01:29;;;;;;;28.20;13.83;;;10.00;99.90;;;;;;5054750;28;20565;-70
2024/03/04 01:03:55;;;;;;;23.97;13.13;;;10.00;99.90;;;;;;5054043;28;20665;-70
2024/03/04 01:06:21;;;;;;;20.83;12.03;;;10.00;99.90;;;;;;5054594;28;20167;-69
2024/03/04 01:08:46;;;;;;;20.10;11.80;;;10.00;99.90;;;;;;5054601;28;20684;-70
2024/03/04 01:11:12;;;;;;;18.20;11.60;;;10.00;99.90;;;;;;5054520;28;20167;-70
2024/03/04 01:13:37;;;;;;;25.37;11.80;;;9.90;99.90;;;;;;5054323;28;20517;-72
2024/03/04 01:16:04;;;;;;;26.17;13.50;;;9.90;99.90;;;;;;5054311;28;20270;-69
2024/03/04 01:18:30;;;;;;;35.53;11.30;;;9.90;99.90;;;;;;5054326;28;20274;-70
2024/03/04 01:20:56;;;;;;;21.07;11.00;;;9.90;99.90;;;;;;5054418;28;20405;-69
2024/03/04 01:23:23;;;;;;;26.57;12.10;;;9.80;99.90;;;;;;5053795;28;20453;-70
2024/03/04 01:25:49;;;;;;;25.33;11.80;;;9.80;99.90;;;;;;5054288;28;20159;-69
2024/03/04 01:28:14;;;;;;;26.50;13.43;;;9.80;99.90;;;;;;5054196;28;20983;-70
2024/03/04 01:30:40;;;;;;;27.87;13.97;;;9.80;99.90;;;;;;5054282;28;20205;-70
2024/03/04 01:33:07;;;;;;;22.47;11.37;;;9.80;99.90;;;;;;5053812;28;20253;-70
2024/03/04 01:35:34;;;;;;;29.50;13.47;;;9.80;99.90;;;;;;5052902;28;20622;-70
2024/03/04 01:38:00;;;;;;;24.30;12.80;;;9.80;99.90;;;;;;5052746;28;20433;-70
2024/03/04 01:40:25;;;;;;;25.23;14.23;;;9.80;99.90;;;;;;5054036;28;20404;-70
2024/03/04 01:42:54;;;;;;;21.07;13.07;;;9.80;99.90;;;;;;5052334;28;20449;-69
2024/03/04 01:45:26;;;;;;;22.03;13.53;;;9.80;99.90;;;;;;5053880;28;20163;-70
2024/03/04 01:48:03;;;;;;;24.30;14.03;;;9.80;99.90;;;;;;5052654;28;20429;-69
2024/03/04 01:50:33;;;;;;;29.67;13.70;;;9.80;99.90;;;;;;5053531;28;20424;-70
2024/03/04 01:53:00;;;;;;;22.53;13.67;;;9.80;99.90;;;;;;5053309;28;20424;-70
2024/03/04 01:55:35;;;;;;;30.37;14.27;;;9.80;99.90;;;;;;5052460;28;20414;-70
2024/03/04 01:58:04;;;;;;;27.00;13.17;;;9.80;99.90;;;;;;5053552;28;20427;-69
2024/03/04 02:00:32;;;;;;;31.23;15.40;;;9.80;99.90;;;;;;5053939;28;20409;-70
2024/03/04 02:02:58;;;;;;;25.33;14.43;;;9.80;99.90;;;;;;5052959;28;20456;-70
2024/03/04 02:05:24;;;;;;;32.30;15.90;;;9.80;99.90;;;;;;5053444;28;20409;-70
2024/03/04 02:07:50;;;;;;;34.83;18.07;;;9.80;99.90;;;;;;5053553;28;20187;-69
2024/03/04 02:10:15;;;;;;;35.77;17.20;;;9.80;99.90;;;;;;5053426;28;20248;-69
2024/03/04 02:12:41;;;;;;;30.73;16.57;;;9.80;99.90;;;;;;5053180;28;20441;-70
2024/03/04 02:15:08;;;;;;;29.20;19.07;;;9.80;99.90;;;;;;5053381;28;20167;-69
2024/03/04 02:17:34;;;;;;;34.50;17.80;;;9.80;99.90;;;;;;5053268;28;20276;-69
2024/03/04 02:20:04;;;;;;;30.60;17.30;;;9.80;99.90;;;;;;5053215;28;20504;-70
2024/03/04 02:22:29;;;;;;;27.70;16.60;;;9.80;99.90;;;;;;5052900;28;20958;-69
2024/03/04 02:24:55;;;;;;;34.93;15.93;;;9.80;99.90;;;;;;5051890;28;20488;-70
2024/03/04 02:27:21;;;;;;;25.57;15.83;;;9.80;99.90;;;;;;5051773;28;20190;-70
2024/03/04 02:29:48;;;;;;;34.70;17.90;;;9.80;99.90;;;;;;5053063;28;20165;-70
2024/03/04 02:32:17;;;;;;;31.80;18.67;;;9.80;99.90;;;;;;5052716;28;20163;-70
2024/03/04 02:34:45;;;;;;;27.73;16.30;;;9.80;99.90;;;;;;5051754;28;20657;-70
2024/03/04 02:37:11;;;;;;;29.50;16.63;;;9.80;99.90;;;;;;5052785;28;20512;-70
2024/03/04 02:39:37;;;;;;;29.43;17.10;;;9.80;99.90;;;;;;5052752;28;20743;-70
2024/03/04 02:42:03;;;;;;;25.57;16.67;;;9.80;99.90;;;;;;5052782;28;20405;-71
2024/03/04 02:44:30;;;;;;;31.73;17.90;;;9.80;99.90;;;;;;5051499;28;20658;-70
2024/03/04 02:46:56;;;;;;;33.07;16.30;;;9.80;99.90;;;;;;5052727;28;20417;-70
2024/03/04 02:49:21;;;;;;;30.53;16.00;;;9.80;99.90;;;;;;5052675;28;20905;-70
2024/03/04 02:51:47;;;;;;;26.40;16.37;;;9.80;99.90;;;;;;5052578;28;20175;-70
2024/03/04 02:54:13;;;;;;;25.83;14.37;;;9.80;99.90;;;;;;5052314;28;20174;-70
2024/03/04 02:56:38;;;;;;;28.10;16.83;;;9.80;99.90;;;;;;5052529;28;20196;-69
2024/03/04 02:59:04;;;;;;;25.80;15.03;;;9.80;99.90;;;;;;5052517;28;20534;-70
2024/03/04 03:01:30;;;;;;;27.43;15.50;;;9.80;99.90;;;;;;5052444;28;20221;-70
2024/03/04 03:03:55;;;;;;;25.53;14.67;;;9.80;99.90;;;;;;5051867;28;20197;-70
2024/03/04 03:06:21;;;;;;;28.63;13.47;;;9.80;99.90;;;;;;5051918;28;20159;-69
2024/03/04 03:08:46;;;;;;;20.47;12.50;;;9.80;99.90;;;;;;5052096;28;20313;-70
2024/03/04 03:11:13;;;;;;;25.47;13.90;;;9.80;99.90;;;;;;5052191;28;20304;-70
2024/03/04 03:13:38;;;;;;;24.13;14.30;;;9.80;99.90;;;;;;5052291;28;20643;-70
2024/03/04 03:16:04;;;;;;;24.07;14.70;;;9.70;99.90;;;;;;5051122;28;20492;-70
2024/03/04 03:18:31;;;;;;;19.97;12.90;;;9.80;99.90;;;;;;5052570;28;20183;-70
2024/03/04 03:20:57;;;;;;;20.80;12.07;;;9.80;99.90;;;;;;5052277;28;21037;-69
2024/03/04 03:23:22;;;;;;;22.80;13.00;;;9.80;99.90;;;;;;5051697;28;20475;-70
2024/03/04 03:25:48;;;;;;;21.50;12.50;;;9.80;99.90;;;;;;5052157;28;20220;-70
2024/03/04 03:28:14;;;;;;;31.60;18.07;;;9.80;99.90;;;;;;5051232;28;20191;-70
2024/03/04 03:30:40;;;;;;;21.20;12.57;;;9.80;99.90;;;;;;5052053;28;20246;-69
2024/03/04 03:33:06;;;;;;;18.23;12.07;;;9.80;99.90;;;;;;5051720;28;20177;-70
2024/03/04 03:35:32;;;;;;;18.07;9.77;;;9.80;99.90;;;;;;5052047;28;20959;-69
2024/03/04 03:37:58;;;;;;;18.23;10.83;;;9.80;99.90;;;;;;5051797;28;20290;-69
2024/03/04 03:40:23;;;;;;;15.73;9.80;;;9.80;99.90;;;;;;5050790;28;20793;-70
2024/03/04 03:42:49;;;;;;;13.93;10.57;;;9.80;99.90;;;;;;5051556;28;20205;-69
2024/03/04 03:45:15;;;;;;;18.07;11.10;;;9.80;99.90;;;;;;5051760;28;20561;-69
2024/03/04 03:47:41;;;;;;;17.30;10.77;;;9.70;99.90;;;;;;5051785;28;20210;-70
2024/03/04 03:50:07;;;;;;;19.67;12.23;;;9.80;99.90;;;;;;5051856;28;20167;-70
2024/03/04 03:52:34;;;;;;;22.13;12.47;;;9.70;99.90;;;;;;5051328;28;20421;-69
2024/03/04 03:55:00;;;;;;;15.57;11.17;;;9.70;99.90;;;;;;5050245;28;20444;-70
2024/03/04 03:57:25;;;;;;;23.70;14.20;;;9.70;99.90;;;;;;5051361;28;20844;-69
2024/03/04 03:59:51;;;;;;;26.33;11.83;;;9.70;99.90;;;;;;5051660;28;20181;-70
2024/03/04 04:02:16;;;;;;;19.20;12.20;;;9.70;99.90;;;;;;5051376;28;20676;-69
2024/03/04 04:04:42;;;;;;;20.77;13.47;;;9.60;99.90;;;;;;5051605;28;20186;-69
2024/03/04 04:07:08;;;;;;;22.60;14.10;;;9.60;99.90;;;;;;5050309;28;20198;-69
2024/03/04 04:09:33;;;;;;;24.37;14.63;;;9.70;99.90;;;;;;5051706;28;20249;-69
2024/03/04 04:11:59;;;;;;;28.73;15.77;;;9.60;99.90;;;;;;5051651;28;20167;-69
2024/03/04 04:14:24;;;;;;;33.90;16.23;;;9.60;99.90;;;;;;5051286;28;20189;-70
2024/03/04 04:16:51;;;;;;;27.47;14.13;;;9.70;99.90;;;;;;5052436;28;20223;-70
2024/03/04 04:19:17;;;;;;;29.57;15.60;;;9.60;99.90;;;;;;5055588;28;20257;-69
2024/03/04 04:21:43;;;;;;;25.20;14.13;;;9.70;99.90;;;;;;5055448;28;20520;-70
2024/03/04 04:24:10;;;;;;;21.27;13.60;;;9.60;99.90;;;;;;5055156;28;20251;-69
2024/03/04 04:26:35;;;;;;;22.67;13.77;;;9.60;99.90;;;;;;5055401;28;20410;-69
2024/03/04 04:29:03;;;;;;;22.87;13.23;;;9.70;99.90;;;;;;5055434;28;20412;-69
2024/03/04 04:31:28;;;;;;;32.27;15.13;;;9.70;99.90;;;;;;5055343;28;20759;-69
2024/03/04 04:33:54;;;;;;;31.73;14.63;;;9.70;99.90;;;;;;5053729;28;20504;-70
2024/03/04 04:36:22;;;;;;;23.03;14.03;;;9.60;99.90;;;;;;5053834;28;20406;-70
2024/03/04 04:38:48;;;;;;;24.97;14.20;;;9.60;99.90;;;;;;5055220;28;20273;-69
2024/03/04 04:41:14;;;;;;;22.07;13.80;;;9.60;99.90;;;;;;5055149;28;20459;-69
2024/03/04 04:43:39;;;;;;;27.37;15.17;;;9.60;99.90;;;;;;5054797;28;20480;-70
2024/03/04 04:46:05;;;;;;;21.70;14.40;;;9.60;99.90;;;;;;5055160;28;20637;-70
2024/03/04 04:48:30;;;;;;;29.80;15.83;;;9.60;99.90;;;;;;5055001;28;20183;-69
2024/03/04 04:50:56;;;;;;;29.30;14.80;;;9.60;99.90;;;;;;5054963;28;20198;-69
2024/03/04 04:53:23;;;;;;;21.10;13.10;;;9.60;99.90;;;;;;5054442;28;20564;-69
2024/03/04 04:55:49;;;;;;;15.77;11.90;;;9.60;99.90;;;;;;5054962;28;20159;-69
2024/03/04 04:58:15;;;;;;;19.93;11.77;;;9.60;99.90;;;;;;5054803;28;20843;-69
2024/03/04 05:00:40;;;;;;;21.70;14.10;;;9.60;99.90;;;;;;5054856;28;20192;-70
2024/03/04 05:03:06;;;;;;;21.87;12.07;;;9.60;99.90;;;;;;5054382;28;20538;-70
2024/03/04 05:05:31;;;;;;;18.97;12.97;;;9.60;99.90;;;;;;5054515;28;20167;-70
2024/03/04 05:07:57;;;;;;;17.00;11.10;;;9.60;99.90;;;;;;5054542;28;20178;-70
2024/03/04 05:10:22;;;;;;;26.20;13.07;;;9.60;99.90;;;;;;5054637;28;20167;-69
2024/03/04 05:12:48;;;;;;;26.20;12.20;;;9.60;99.90;;;;;;5054303;28;20171;-70
2024/03/04 05:15:17;;;;;;;22.40;12.87;;;9.60;99.90;;;;;;5053257;28;20179;-69
2024/03/04 05:17:42;;;;;;;20.43;11.63;;;9.60;99.90;;;;;;5054415;28;20436;-70
2024/03/04 05:20:09;;;;;;;21.33;12.87;;;9.60;99.90;;;;;;5054335;28;20397;-70
2024/03/04 05:22:35;;;;;;;24.10;13.50;;;9.50;99.90;;;;;;5052768;28;20206;-70
2024/03/04 05:25:01;;;;;;;23.87;14.03;;;9.50;99.90;;;;;;5054357;28;20428;-69
2024/03/04 05:27:29;;;;;;;20.27;12.43;;;9.50;99.90;;;;;;5053741;28;20179;-70
2024/03/04 05:29:55;;;;;;;25.73;12.07;;;9.50;99.90;;;;;;5054278;28;20487;-70
2024/03/04 05:32:21;;;;;;;17.40;12.10;;;9.50;99.90;;;;;;5052678;28;20459;-70
2024/03/04 05:34:46;;;;;;;27.00;12.47;;;9.50;99.90;;;;;;5054235;28;20261;-69
2024/03/04 05:37:12;;;;;;;19.47;13.10;;;9.50;99.90;;;;;;5053845;28;20228;-70
2024/03/04 05:39:38;;;;;;;28.63;12.90;;;9.50;99.90;;;;;;5054013;28;20182;-69
2024/03/04 05:42:04;;;;;;;20.80;13.70;;;9.50;99.90;;;;;;5053880;28;20665;-70
2024/03/04 05:44:29;;;;;;;17.57;12.90;;;9.50;99.90;;;;;;5053835;28;20489;-69
2024/03/04 05:46:55;;;;;;;24.27;15.07;;;9.50;99.90;;;;;;5052631;28;20553;-69
2024/03/04 05:49:21;;;;;;;20.07;13.47;;;9.50;99.90;;;;;;5053803;28;20596;-70
2024/03/04 05:51:46;;;;;;;20.90;12.30;;;9.50;99.90;;;;;;5054090;28;20678;-70
2024/03/04 05:54:12;;;;;;;20.10;13.90;;;9.50;99.90;;;;;;5052425;28;20634;-69
2024/03/04 05:56:46;;;;;;;21.07;13.57;;;9.50;99.90;;;;;;5053767;28;20167;-69
2024/03/04 05:59:12;;;;;;;18.80;13.87;;;9.50;99.90;;;;;;5053753;28;20162;-69
2024/03/04 06:01:39;;;;;;;19.00;12.07;;;9.50;99.90;;;;;;5053840;28;20405;-69
2024/03/04 06:04:05;;;;;;;19.33;12.80;;;9.50;99.90;;;;;;5052002;28;20461;-69
2024/03/04 06:06:31;;;;;;;19.53;12.70;;;9.50;99.90;;;;;;5053293;28;20851;-69
2024/03/04 06:08:58;;;;;;;18.90;12.00;;;9.50;99.90;;;;;;5052347;28;20974;-67
2024/03/04 06:11:26;;;;;;;20.53;10.97;;;9.50;99.90;;;;;;5053473;28;20412;-68
2024/03/04 06:13:52;;;;;;;20.40;13.40;;;9.60;99.90;;;;;;5053223;28;20811;-68
2024/03/04 06:16:17;;;;;;;19.23;11.10;;;9.60;99.90;;;;;;5053409;28;20409;-68
2024/03/04 06:18:43;;;;;;;19.10;11.00;;;9.70;99.90;;;;;;5053000;28;20186;-68
2024/03/04 06:21:09;;;;;;;18.83;10.70;;;9.70;99.90;;;;;;5053256;28;20254;-68
2024/03/04 06:23:35;;;;;;;16.20;10.97;;;9.70;99.90;;;;;;5052928;28;20281;-68
2024/03/04 06:26:01;;;;;;;19.40;11.80;;;9.80;99.90;;;;;;5053055;28;20159;-68
2024/03/04 06:28:26;;;;;;;21.20;11.70;;;9.80;99.90;;;;;;5052413;28;20559;-68
2024/03/04 06:30:52;;;;;;;17.93;11.10;;;9.70;99.90;;;;;;5052949;28;20213;-68
2024/03/04 06:33:17;;;;;;;15.53;10.70;;;9.70;99.90;;;;;;5052760;28;20632;-68
2024/03/04 06:35:43;;;;;;;17.77;10.20;;;9.80;99.90;;;;;;5053008;28;20257;-68
2024/03/04 06:38:08;;;;;;;16.17;10.60;;;9.80;99.90;;;;;;5052887;28;20567;-68
2024/03/04 06:40:34;;;;;;;12.90;9.50;;;9.80;99.90;;;;;;5051979;28;20181;-68
2024/03/04 06:42:59;;;;;;;13.50;8.87;;;9.80;99.90;;;;;;5052592;28;20199;-68
2024/03/04 06:45:25;;;;;;;17.07;10.10;;;9.90;99.90;;;;;;5052926;28;20155;-68
2024/03/04 06:47:53;;;;;;;14.70;8.53;;;9.90;99.90;;;;;;5052725;28;20183;-68
2024/03/04 06:50:18;;;;;;;9.23;7.70;;;9.90;99.90;;;;;;5052761;28;20209;-68
2024/03/04 06:52:44;;;;;;;15.57;9.47;;;9.90;99.90;;;;;;5052349;28;20429;-68
2024/03/04 06:55:09;;;;;;;17.43;10.80;;;9.90;99.90;;;;;;5052715;28;20634;-69
2024/03/04 06:57:35;;;;;;;13.47;10.20;;;9.90;99.90;;;;;;5052558;28;20186;-68
2024/03/04 07:00:00;;;;;;;23.50;10.77;;;9.90;99.90;;;;;;5052612;28;20171;-69
2024/03/04 07:02:26;;;;;;;16.53;11.50;;;9.90;99.90;;;;;;5052161;28;20617;-67
2024/03/04 07:04:51;;;;;;;15.60;10.90;;;9.90;99.90;;;;;;5052531;28;20186;-67
2024/03/04 07:07:17;;;;;;;16.13;10.00;;;9.90;99.90;;;;;;5052385;28;20325;-67
2024/03/04 07:09:43;;;;;;;21.73;9.37;;;9.90;99.90;;;;;;5052422;28;20206;-67
2024/03/04 07:12:08;;;;;;;14.67;9.27;;;9.90;99.90;;;;;;5052356;28;20170;-67
2024/03/04 07:14:34;;;;;;;12.67;8.63;;;9.90;99.90;;;;;;5052061;28;20175;-67
2024/03/04 07:16:59;;;;;;;14.00;9.17;;;9.80;99.90;;;;;;5052198;28;20201;-67
2024/03/04 07:19:25;;;;;;;13.90;9.50;;;9.90;99.90;;;;;;5052274;28;20197;-67
2024/03/04 07:21:50;;;;;;;22.83;9.47;;;9.80;99.90;;;;;;5052220;28;20174;-70
2024/03/04 07:24:17;;;;;;;15.97;10.30;;;9.80;99.90;;;;;;5051888;28;20525;-67
2024/03/04 07:26:43;;;;;;;15.33;10.17;;;9.80;99.90;;;;;;5052134;28;20224;-67
2024/03/04 07:29:08;;;;;;;18.10;9.50;;;9.90;99.90;;;;;;5052021;28;20401;-67
2024/03/04 07:31:34;;;;;;;12.00;8.53;;;9.90;99.90;;;;;;5052000;28;20167;-67
2024/03/04 07:34:00;;;;;;;11.50;8.47;;;9.90;99.90;;;;;;5051642;28;20174;-67
2024/03/04 07:36:25;;;;;;;16.20;9.83;;;9.90;99.90;;;;;;5050692;28;20170;-67
2024/03/04 07:38:51;;;;;;;10.10;6.90;;;10.00;99.90;;;;;;5051790;28;20421;-68
2024/03/04 07:41:17;;;;;;;13.73;8.53;;;10.00;99.90;;;;;;5051937;28;20167;-68
2024/03/04 07:43:42;;;;;;;15.17;9.07;;;10.10;99.90;;;;;;5051510;28;20191;-68
2024/03/04 07:46:08;;;;;;;15.90;9.60;;;10.10;99.90;;;;;;5051832;28;20416;-68
2024/03/04 07:48:33;;;;;;;19.30;10.37;;;10.10;99.90;;;;;;5051709;28;20201;-68
2024/03/04 07:50:59;;;;;;;12.23;8.60;;;10.10;99.90;;;;;;5051686;28;20699;-68
2024/03/04 07:53:24;;;;;;;13.70;7.90;;;10.20;99.90;;;;;;5051480;28;20214;-68
2024/03/04 07:55:50;;;;;;;19.13;9.00;;;10.20;99.90;;;;;;5051859;28;20171;-68
2024/03/04 07:58:16;;;;;;;16.20;8.40;;;10.20;99.90;;;;;;5051632;28;20320;-68
2024/03/04 08:00:41;;;;;;;10.33;7.10;;;10.20;99.90;;;;;;5051667;28;20167;-67
2024/03/04 08:03:08;;;;;;;10.80;7.43;;;10.20;99.90;;;;;;5051310;28;20205;-68
2024/03/04 08:05:33;;;;;;;12.73;7.00;;;10.20;99.90;;;;;;5051667;28;20293;-68
2024/03/04 08:08:00;;;;;;;12.20;7.60;;;10.20;99.90;;;;;;5051523;28;20508;-68
2024/03/04 08:10:26;;;;;;;9.37;6.43;;;10.20;99.90;;;;;;5051639;28;20163;-68
2024/03/04 08:12:52;;;;;;;8.57;4.87;;;10.20;99.90;;;;;;5051312;28;20412;-68
2024/03/04 08:15:17;;;;;;;10.30;5.50;;;10.20;99.90;;;;;;5051554;28;20405;-68
2024/03/04 08:17:43;;;;;;;8.77;5.60;;;10.20;99.90;;;;;;5051451;28;20191;-68
2024/03/04 08:20:09;;;;;;;8.47;4.63;;;10.20;99.90;;;;;;5051553;28;20167;-68
2024/03/04 08:22:34;;;;;;;6.63;4.30;;;10.20;99.90;;;;;;5051215;28;20173;-67
2024/03/04 08:25:00;;;;;;;11.13;4.87;;;10.30;99.90;;;;;;5051556;28;20590;-68
2024/03/04 08:27:26;;;;;;;5.90;4.50;;;10.30;99.90;;;;;;5051355;28;20189;-68
2024/03/04 08:29:51;;;;;;;7.13;4.50;;;10.30;99.90;;;;;;5051392;28;20415;-68
2024/03/04 08:32:17;;;;;;;9.13;6.07;;;10.40;99.90;;;;;;5051119;28;20199;-68
2024/03/04 08:34:47;;;;;;;7.17;5.13;;;10.40;99.90;;;;;;5051398;28;20167;-68
2024/03/04 08:37:13;;;;;;;6.33;5.10;;;10.40;99.90;;;;;;5051402;28;20236;-68
2024/03/04 08:39:39;;;;;;;5.73;4.80;;;10.40;99.90;;;;;;5051410;28;20496;-68
2024/03/04 08:42:04;;;;;;;7.57;4.80;;;10.40;99.90;;;;;;5051246;28;20402;-68
2024/03/04 08:44:31;;;;;;;10.93;4.33;;;10.40;99.90;;;;;;5050954;28;20206;-68
2024/03/04 08:46:56;;;;;;;5.93;5.33;;;10.50;99.90;;;;;;5051249;28;20190;-68
2024/03/04 08:49:22;;;;;;;5.53;4.53;;;10.50;99.90;;;;;;5051253;28;20394;-68
2024/03/04 08:51:47;;;;;;;6.60;4.27;;;10.60;99.90;;;;;;5051076;28;20175;-68
2024/03/04 08:54:14;;;;;;;4.10;3.57;;;10.60;99.90;;;;;;5050972;28;20163;-68
2024/03/04 08:56:40;;;;;;;3.87;3.47;;;10.70;99.90;;;;;;5051123;28;20572;-68
2024/03/04 08:59:06;;;;;;;7.67;4.70;;;10.70;99.90;;;;;;5051193;28;20892;-68
2024/03/04 09:01:32;;;;;;;5.63;4.50;;;10.80;99.90;;;;;;5049888;28;20467;-68
2024/03/04 09:03:58;;;;;;;6.10;4.40;;;10.90;99.90;;;;;;5053309;28;20729;-68
2024/03/04 09:06:27;;;;;;;6.97;4.10;;;11.10;99.90;;;;;;5054751;28;20167;-68
2024/03/04 09:08:52;;;;;;;4.20;3.80;;;11.30;99.90;;;;;;5054613;28;20440;-68
2024/03/04 09:11:18;;;;;;;5.77;4.03;;;11.50;99.90;;;;;;5054586;28;20397;-68
2024/03/04 09:13:44;;;;;;;6.27;4.13;;;11.60;99.90;;;;;;5054341;28;20162;-68
2024/03/04 09:16:10;;;;;;;5.57;3.50;;;11.60;99.90;;;;;;5054591;28;20169;-68
2024/03/04 09:18:40;;;;;;;5.27;3.83;;;11.70;99.90;;;;;;5054428;28;20420;-68
2024/03/04 09:21:07;;;;;;;5.93;4.70;;;11.80;99.90;;;;;;5054558;28;20437;-68
2024/03/04 09:23:33;;;;;;;6.70;3.90;;;11.80;99.90;;;;;;5054107;28;20473;-67
2024/03/04 09:25:59;;;;;;;4.20;3.80;;;11.80;99.90;;;;;;5054361;28;20962;-68
2024/03/04 09:28:24;;;;;;;5.20;4.27;;;11.90;99.90;;;;;;5071125;28;20433;-68
2024/03/04 09:30:50;;;;;;;5.40;3.80;;;11.90;99.90;;;;;;5074227;28;20246;-68
2024/03/04 09:33:16;;;;;;;4.13;3.70;;;12.00;99.90;;;;;;5072441;28;20637;-68
2024/03/04 09:35:42;;;;;;;3.83;3.10;;;12.00;99.90;;;;;;5073930;28;20190;-68
2024/03/04 09:38:07;;;;;;;4.50;3.63;;;12.10;99.90;;;;;;5074055;28;20847;-68
2024/03/04 09:40:36;;;;;;;5.43;4.13;;;12.10;99.90;;;;;;5074528;28;20166;-68
2024/03/04 09:43:02;;;;;;;4.87;3.27;;;12.10;99.90;;;;;;5073803;28;20202;-68
2024/03/04 09:45:29;;;;;;;8.13;3.90;;;12.10;99.90;;;;;;5073926;28;20396;-68
2024/03/04 09:47:56;;;;;;;6.43;4.47;;;12.10;99.90;;;;;;5073866;28;20189;-68
2024/03/04 09:50:23;;;;;;;6.47;4.00;;;12.10;99.90;;;;;;5073909;28;20488;-67
2024/03/04 09:52:50;;;;;;;5.83;4.60;;;12.10;99.90;;;;;;5073588;28;20431;-68
2024/03/04 09:55:17;;;;;;;6.50;3.60;;;12.00;99.90;;;;;;5073710;28;20428;-68
2024/03/04 09:57:44;;;;;;;11.63;4.50;;;12.00;99.90;;;;;;5073670;28;20834;-68
2024/03/04 10:00:13;;;;;;;5.90;4.73;;;12.00;99.90;;;;;;5073698;28;20450;-68
2024/03/04 10:02:41;;;;;;;8.20;5.77;;;11.90;99.90;;;;;;5073389;28;20465;-68
2024/03/04 10:05:07;;;;;;;7.30;5.13;;;11.70;99.90;;;;;;5073631;28;20408;-68
2024/03/04 10:07:35;;;;;;;9.83;5.77;;;11.70;99.90;;;;;;5073945;28;20479;-67
2024/03/04 10:10:02;;;;;;;9.90;6.40;;;11.60;99.90;;;;;;5073535;28;20163;-69
2024/03/04 10:12:28;;;;;;;10.00;6.43;;;11.40;99.90;;;;;;5073433;28;20422;-68
2024/03/04 10:15:04;;;;;;;8.00;5.43;;;11.40;99.90;;;;;;5073308;28;20915;-68
2024/03/04 10:17:30;;;;;;;6.83;6.07;;;11.30;99.90;;;;;;5073388;28;20439;-68
2024/03/04 10:20:02;;;;;;;9.57;6.37;;;11.30;99.90;;;;;;5073267;28;20408;-68
2024/03/04 10:22:46;;;;;;;10.30;5.63;;;11.30;99.90;;;;;;5072979;28;20158;-68
2024/03/04 10:25:13;;;;;;;7.73;5.33;;;11.20;99.90;;;;;;5073230;28;20408;-68
2024/03/04 10:27:47;;;;;;;7.33;6.00;;;11.20;99.90;;;;;;5073124;28;20923;-68
2024/03/04 10:30:13;;;;;;;7.77;6.23;;;11.20;99.90;;;;;;5071812;28;20442;-68
2024/03/04 10:32:44;;;;;;;7.60;6.10;;;11.20;99.90;;;;;;5072735;28;20453;-68
2024/03/04 10:35:10;;;;;;;6.33;5.20;;;11.10;99.90;;;;;;5073077;28;20743;-68
2024/03/04 10:37:35;;;;;;;6.53;5.13;;;11.10;99.90;;;;;;5073071;28;20464;-67
2024/03/04 10:40:04;;;;;;;7.57;6.07;;;11.10;99.90;;;;;;5072858;28;20257;-68
2024/03/04 10:42:29;;;;;;;10.13;7.20;;;11.10;99.90;;;;;;5072538;28;20660;-68
2024/03/04 10:44:56;;;;;;;10.33;6.60;;;11.10;99.90;;;;;;5072765;28;20404;-68
2024/03/04 10:47:22;;;;;;;6.53;5.70;;;11.00;99.90;;;;;;5072620;28;20193;-68
2024/03/04 10:49:51;;;;;;;8.03;5.60;;;11.10;99.90;;;;;;5072653;28;20866;-68
2024/03/04 10:52:17;;;;;;;5.73;4.40;;;11.10;99.90;;;;;;5072277;28;20175;-68
2024/03/04 10:54:43;;;;;;;12.03;6.43;;;11.10;99.90;;;;;;5072951;28;20985;-67
2024/03/04 10:57:26;;;;;;;6.73;5.30;;;10.90;99.90;;;;;;5072444;28;20511;-67
2024/03/04 11:02:59;;;;;;;7.67;5.00;;;10.80;99.90;;;;;;5072282;28;20448;-67
2024/03/04 11:05:26;;;;;;;8.23;5.83;;;10.80;99.90;;;;;;5072453;28;20481;-67
2024/03/04 11:07:57;;;;;;;7.17;4.73;;;10.80;99.90;;;;;;5072326;28;20898;-67
2024/03/04 11:10:29;;;;;;;7.70;4.30;;;10.80;99.90;;;;;;5072395;28;20419;-67
2024/03/04 11:13:20;;;;;;;8.63;4.00;;;10.80;99.90;;;;;;5070704;28;20408;-68
2024/03/04 11:16:01;;;;;;;7.07;4.43;;;10.80;99.90;;;;;;5068977;28;20462;-68
2024/03/04 11:18:51;;;;;;;6.27;4.33;;;10.80;99.90;;;;;;5072200;28;20424;-67
2024/03/04 11:21:18;;;;;;;5.67;5.00;;;10.90;99.90;;;;;;5072411;28;20487;-67
2024/03/04 11:23:45;;;;;;;6.57;3.87;;;10.90;99.90;;;;;;5071776;28;20452;-68
2024/03/04 11:26:11;;;;;;;4.90;4.00;;;10.90;99.90;;;;;;5071678;28;20896;-67
2024/03/04 11:28:38;;;;;;;5.70;4.10;;;11.00;99.90;;;;;;5072456;28;20413;-68
2024/03/04 11:31:11;;;;;;;5.33;3.87;;;11.10;99.90;;;;;;5072021;28;21021;-67
2024/03/04 11:33:38;;;;;;;7.90;4.03;;;11.20;99.90;;;;;;5071727;28;20479;-68
2024/03/04 11:36:06;;;;;;;3.97;3.57;;;11.30;99.90;;;;;;5071917;28;20411;-68
2024/03/04 11:38:39;;;;;;;5.03;3.63;;;11.30;99.90;;;;;;5070599;28;20417;-68
2024/03/04 11:41:05;;;;;;;5.70;3.97;;;11.30;99.90;;;;;;5072014;28;20408;-68
2024/03/04 11:43:52;;;;;;;3.60;3.30;;;11.40;99.90;;;;;;5071416;28;20493;-68
2024/03/04 11:46:19;;;;;;;4.37;3.03;;;11.50;99.90;;;;;;5071872;28;20552;-68
2024/03/04 11:48:48;;;;;;;5.27;2.83;;;11.50;99.90;;;;;;5071731;28;20420;-67
2024/03/04 11:51:14;;;;;;;4.47;3.60;;;11.60;99.90;;;;;;5071780;28;21004;-68
2024/03/04 11:53:43;;;;;;;4.30;2.87;;;11.70;99.90;;;;;;5062465;28;20446;-67
2024/03/04 11:56:09;;;;;;;4.60;2.97;;;11.70;99.90;;;;;;5047579;28;20476;-68
2024/03/04 11:58:35;;;;;;;3.57;3.13;;;11.70;99.90;;;;;;5047065;28;20805;-68
2024/03/04 12:01:01;;;;;;;4.47;3.20;;;11.80;99.90;;;;;;5051453;28;20183;-68
2024/03/04 12:03:27;;;;;;;3.40;3.10;;;11.90;99.90;;;;;;5048422;28;20237;-68
2024/03/04 12:05:53;;;;;;;4.00;3.10;;;12.00;99.90;;;;;;5050272;28;20405;-68
2024/03/04 12:08:19;;;;;;;4.13;3.40;;;12.10;99.90;;;;;;5051431;28;20455;-68
2024/03/04 12:10:44;;;;;;;3.90;3.43;;;12.10;99.90;;;;;;5051359;28;20408;-68
2024/03/04 12:13:11;;;;;;;5.33;3.40;;;12.30;99.90;;;;;;5053823;28;20177;-68
2024/03/04 12:15:38;;;;;;;7.07;3.87;;;12.40;99.90;;;;;;5045007;28;20194;-68
2024/03/04 12:18:04;;;;;;;4.47;3.57;;;12.50;99.90;;;;;;5051146;28;20433;-68
2024/03/04 12:20:30;;;;;;;3.97;3.10;;;12.60;99.90;;;;;;5051284;28;20418;-68
2024/03/04 12:22:56;;;;;;;4.07;2.70;;;12.70;99.90;;;;;;5061419;28;20343;-68
2024/03/04 12:25:25;;;;;;;4.33;3.27;;;12.80;99.90;;;;;;5060444;28;20516;-68
2024/03/04 12:27:54;;;;;;;5.03;3.17;;;12.90;99.90;;;;;;5051303;28;20425;-68
2024/03/04 12:30:21;;;;;;;6.83;3.30;;;12.90;99.90;;;;;;5051310;28;20410;-68
2024/03/04 12:32:48;;;;;;;2.50;2.30;;;13.00;99.90;;;;;;5052922;28;20417;-68
2024/03/04 12:35:31;;;;;;;3.33;2.50;;;13.00;99.90;;;;;;5050827;28;20508;-68
2024/03/04 12:37:59;;;;;;;3.53;3.20;;;13.10;99.90;;;;;;5052418;28;20432;-68
2024/03/04 12:40:25;;;;;;;4.13;3.80;;;13.10;99.90;;;;;;5055116;28;20503;-68